Time;durP1;ratioP1;P1;durP2;ratioP2;P2;SDS_P1;SDS_P2;PMS_P1;PMS_P2;Temp;Humidity;BMP_temperature;BMP_pressure;BME280_temperature;BME280_humidity;BME280_pressure;Samples;Min_cycle;Max_cycle;Signal;HPM_P1;HPM_P2
2021/06/18 00:01:27;;;;;;;7.25;6.07;;;;;;;24.09;46.83;101423.78;143720;607;48004;-87
2021/06/18 00:03:54;;;;;;;7.05;4.87;;;;;;;24.07;46.82;101434.19;143723;574;47002;-88
2021/06/18 00:06:21;;;;;;;6.35;4.10;;;;;;;24.05;46.88;101439.94;143722;585;48006;-88
2021/06/18 00:08:48;;;;;;;4.30;3.42;;;;;;;24.02;46.37;101432.25;143724;581;47013;-88
2021/06/18 00:11:15;;;;;;;4.65;2.90;;;;;;;24.07;46.14;101428.72;143722;572;48002;-87
2021/06/18 00:13:43;;;;;;;4.47;3.47;;;;;;;24.00;46.34;101428.97;143724;648;46000;-87
2021/06/18 00:16:11;;;;;;;6.50;3.70;;;;;;;23.97;46.72;101431.41;143726;592;47004;-88
2021/06/18 00:18:39;;;;;;;3.70;3.08;;;;;;;23.96;46.40;101427.00;143717;575;48021;-87
2021/06/18 00:21:06;;;;;;;5.72;3.47;;;;;;;23.92;47.22;101423.97;143723;578;47002;-88
2021/06/18 00:23:33;;;;;;;5.62;3.08;;;;;;;23.89;46.79;101419.03;143725;579;46004;-88
2021/06/18 00:26:00;;;;;;;4.15;3.25;;;;;;;23.89;46.55;101408.06;143726;585;47004;-88
2021/06/18 00:28:28;;;;;;;5.18;2.60;;;;;;;23.92;46.83;101404.78;143724;595;47009;-87
2021/06/18 00:30:54;;;;;;;4.57;3.45;;;;;;;23.91;46.75;101403.13;143720;704;48934;-87
2021/06/18 00:33:21;;;;;;;3.72;2.92;;;;;;;23.88;47.11;101395.44;143712;615;49004;-87
2021/06/18 00:35:48;;;;;;;4.18;3.03;;;;;;;23.86;47.35;101401.22;143728;579;47004;-88
2021/06/18 00:38:16;;;;;;;5.45;2.83;;;;;;;23.82;47.66;101407.50;143715;600;48008;-88
2021/06/18 00:40:44;;;;;;;3.65;3.20;;;;;;;23.79;47.15;101397.06;143723;585;47004;-88
2021/06/18 00:43:12;;;;;;;4.00;3.25;;;;;;;23.81;47.15;101398.44;143723;620;46002;-87
2021/06/18 00:45:39;;;;;;;3.17;2.10;;;;;;;23.78;47.04;101393.50;143727;631;47004;-88
2021/06/18 00:48:07;;;;;;;4.53;2.42;;;;;;;23.74;47.34;101387.75;143724;608;47004;-86
2021/06/18 00:50:34;;;;;;;2.92;2.33;;;;;;;23.71;47.46;101392.94;143721;676;47005;-88
2021/06/18 00:53:01;;;;;;;4.30;2.40;;;;;;;23.65;47.38;101385.78;143725;567;46002;-86
2021/06/18 00:55:30;;;;;;;3.95;2.40;;;;;;;23.66;47.18;101382.78;143725;596;47004;-88
2021/06/18 00:57:58;;;;;;;3.47;2.40;;;;;;;23.65;47.58;101374.81;143724;574;48011;-86
2021/06/18 01:00:25;;;;;;;10.18;3.60;;;;;;;23.61;47.64;101378.09;143724;581;47002;-88
2021/06/18 01:02:52;;;;;;;4.37;2.47;;;;;;;23.61;47.48;101375.38;143723;601;46004;-87
2021/06/18 01:05:21;;;;;;;4.82;3.22;;;;;;;23.61;47.79;101378.09;143726;693;47005;-87
2021/06/18 01:08:09;;;;;;;16.80;4.37;;;;;;;23.63;48.25;101383.34;143703;640;51001;-85
2021/06/18 01:11:20;;;;;;;6.10;2.90;;;;;;;23.59;47.53;101379.47;143725;741;47008;-86
2021/06/18 01:14:33;;;;;;;6.45;3.22;;;;;;;23.57;47.53;101384.41;143724;712;46004;-87
2021/06/18 01:17:21;;;;;;;5.00;2.53;;;;;;;23.56;47.99;101383.56;143727;636;47004;-87
2021/06/18 01:20:37;;;;;;;8.85;2.67;;;;;;;23.54;47.51;101385.78;143726;583;47008;-87
2021/06/18 01:23:45;;;;;;;4.97;2.58;;;;;;;23.53;47.45;101386.03;143722;643;48004;-87
2021/06/18 01:27:01;;;;;;;3.50;2.65;;;;;;;23.55;48.15;101386.59;143725;582;45920;-88
2021/06/18 01:29:34;;;;;;;5.82;2.67;;;;;;;23.47;47.92;101398.91;143727;656;47004;-87
2021/06/18 01:32:04;;;;;;;6.43;3.08;;;;;;;23.41;48.12;101398.06;143722;573;47012;-88
2021/06/18 01:34:33;;;;;;;10.88;3.37;;;;;;;23.43;48.37;101392.31;143716;662;50002;-88
2021/06/18 01:37:12;;;;;;;5.47;2.67;;;;;;;23.43;48.00;101393.16;143722;592;46010;-87
2021/06/18 01:39:42;;;;;;;5.32;2.60;;;;;;;23.43;48.49;101382.19;143726;574;47004;-86
2021/06/18 01:42:10;;;;;;;4.65;2.80;;;;;;;23.40;47.94;101388.19;143725;662;47008;-88
2021/06/18 01:44:38;;;;;;;4.78;3.15;;;;;;;23.36;48.37;101389.81;143723;567;47002;-88
2021/06/18 01:47:08;;;;;;;6.95;4.32;;;;;;;23.35;48.26;101388.16;143725;567;46926;-87
2021/06/18 01:49:38;;;;;;;9.45;4.90;;;;;;;23.35;48.84;101396.41;143725;576;48006;-87
2021/06/18 01:52:07;;;;;;;9.98;6.37;;;;;;;23.34;48.88;101385.72;143723;581;47009;-88
2021/06/18 01:54:36;;;;;;;13.80;8.38;;;;;;;23.35;48.55;101390.09;143723;573;48002;-87
2021/06/18 01:57:06;;;;;;;18.17;10.27;;;;;;;23.32;48.93;101391.44;143726;599;46004;-86
2021/06/18 01:59:36;;;;;;;19.15;10.10;;;;;;;23.27;48.88;101394.19;143725;589;47004;-87
2021/06/18 02:02:07;;;;;;;18.50;9.82;;;;;;;23.25;49.17;101402.66;143724;708;47008;-87
2021/06/18 02:04:37;;;;;;;15.18;10.20;;;;;;;23.27;48.99;101392.25;143722;683;48013;-85
2021/06/18 02:07:05;;;;;;;14.10;8.57;;;;;;;23.33;48.88;101395.03;143723;602;47004;-87
2021/06/18 02:09:35;;;;;;;11.40;7.32;;;;;;;23.31;49.57;101392.53;143718;695;48002;-88
2021/06/18 02:12:03;;;;;;;9.98;6.97;;;;;;;23.28;48.88;101395.84;143725;617;47012;-88
2021/06/18 02:14:32;;;;;;;11.80;8.25;;;;;;;23.28;48.46;101395.84;143720;631;48004;-88
2021/06/18 02:17:01;;;;;;;10.45;7.65;;;;;;;23.31;48.85;101393.37;143727;652;45920;-86
2021/06/18 02:19:29;;;;;;;10.13;6.87;;;;;;;23.26;49.14;101393.34;143725;711;48004;-87
2021/06/18 02:21:58;;;;;;;9.35;6.93;;;;;;;23.29;48.97;101401.03;143725;597;47013;-86
2021/06/18 02:24:29;;;;;;;8.55;5.68;;;;;;;23.24;49.16;101397.47;143725;583;47002;-87
2021/06/18 02:26:57;;;;;;;6.30;5.20;;;;;;;23.21;49.61;101398.00;143723;652;45926;-87
2021/06/18 02:29:24;;;;;;;5.57;4.75;;;;;;;23.21;49.40;101398.00;143726;573;48004;-87
2021/06/18 02:31:54;;;;;;;5.70;3.72;;;;;;;23.19;49.31;101397.41;143722;568;47008;-86
2021/06/18 02:34:21;;;;;;;5.82;3.80;;;;;;;23.17;49.24;101403.16;143724;568;47002;-86
2021/06/18 02:36:49;;;;;;;5.18;4.68;;;;;;;23.20;49.68;101390.81;143724;716;46926;-86
2021/06/18 02:39:16;;;;;;;5.30;4.78;;;;;;;23.16;49.77;101379.59;143726;566;47006;-87
2021/06/18 02:41:43;;;;;;;5.93;4.40;;;;;;;23.13;49.67;101383.66;143723;610;47008;-84
2021/06/18 02:44:11;;;;;;;6.50;4.80;;;;;;;23.17;50.15;101384.78;143714;610;48006;-86
2021/06/18 02:47:18;;;;;;;4.97;4.47;;;;;;;23.19;49.76;101392.75;143727;573;45928;-88
2021/06/18 02:49:52;;;;;;;5.07;4.10;;;;;;;23.13;49.92;101389.16;143724;613;49009;-88
2021/06/18 02:52:53;;;;;;;5.20;3.80;;;;;;;23.09;50.32;101388.06;143725;589;47010;-88
2021/06/18 02:55:31;;;;;;;4.82;3.92;;;;;;;23.05;50.38;101386.09;143724;624;47004;-87
2021/06/18 02:58:07;;;;;;;4.57;3.03;;;;;;;23.06;50.45;101387.75;143728;618;46002;-87
2021/06/18 03:00:34;;;;;;;4.10;2.97;;;;;;;23.05;50.59;101383.34;143723;690;48006;-87
2021/06/18 03:03:04;;;;;;;4.37;3.30;;;;;;;23.02;50.83;101392.94;143723;566;48012;-86
2021/06/18 03:05:33;;;;;;;7.87;3.60;;;;;;;23.00;50.78;101387.75;143724;579;47002;-87
2021/06/18 03:08:07;;;;;;;6.85;3.15;;;;;;;23.02;50.43;101377.34;143727;696;45925;-87
2021/06/18 03:10:41;;;;;;;7.30;3.45;;;;;;;23.05;50.28;101377.88;143727;683;48002;-87
2021/06/18 03:13:19;;;;;;;9.00;4.12;;;;;;;23.00;51.15;101375.94;143725;598;47010;-87
2021/06/18 03:15:47;;;;;;;7.37;3.87;;;;;;;23.01;50.25;101367.47;143724;607;47004;-88
2021/06/18 03:18:18;;;;;;;4.30;3.28;;;;;;;23.02;51.12;101377.34;143721;599;49014;-89
2021/06/18 03:20:46;;;;;;;5.85;3.15;;;;;;;23.01;51.10;101380.34;143724;632;48008;-86
2021/06/18 03:23:15;;;;;;;5.22;3.45;;;;;;;22.97;50.63;101360.88;143726;575;47010;-86
2021/06/18 03:25:43;;;;;;;4.78;2.95;;;;;;;22.98;50.02;101365.25;143721;572;48004;-86
2021/06/18 03:28:12;;;;;;;11.27;3.30;;;;;;;23.08;50.22;101374.59;143726;660;46002;-87
2021/06/18 03:30:39;;;;;;;4.12;2.78;;;;;;;23.09;49.78;101368.03;143728;590;48006;-87
2021/06/18 03:33:08;;;;;;;5.28;2.50;;;;;;;23.09;49.29;101368.87;143721;569;48010;-88
2021/06/18 03:35:35;;;;;;;5.18;2.55;;;;;;;23.09;48.73;101362.56;143724;625;47002;-88
2021/06/18 03:38:03;;;;;;;4.22;2.60;;;;;;;23.12;49.23;101362.84;143726;730;45927;-86
2021/06/18 03:40:34;;;;;;;6.90;2.95;;;;;;;23.14;49.84;101351.63;143727;667;47002;-86
2021/06/18 03:43:01;;;;;;;7.65;4.70;;;;;;;23.14;50.74;101357.91;143724;575;47012;-86
2021/06/18 03:45:29;;;;;;;14.18;8.65;;;;;;;23.17;52.06;101354.63;143726;595;47004;-86
2021/06/18 03:47:59;;;;;;;21.87;9.88;;;;;;;23.14;52.60;101354.38;143722;602;47002;-87
2021/06/18 03:50:28;;;;;;;15.60;9.63;;;;;;;23.16;52.44;101361.22;143726;573;47017;-87
2021/06/18 03:52:55;;;;;;;28.42;10.07;;;;;;;23.15;53.20;101359.56;143706;628;51010;-87
2021/06/18 03:55:23;;;;;;;19.15;10.30;;;;;;;23.19;53.03;101361.78;143723;629;49012;-87
2021/06/18 03:57:51;;;;;;;15.63;10.23;;;;;;;23.23;53.76;101349.22;143724;579;45924;-88
2021/06/18 04:00:20;;;;;;;18.87;10.30;;;;;;;23.25;53.69;101347.03;143725;573;47004;-86
2021/06/18 04:02:49;;;;;;;15.57;9.02;;;;;;;23.27;53.72;101347.59;143721;589;47010;-87
2021/06/18 04:05:19;;;;;;;12.73;9.13;;;;;;;23.27;53.31;101359.37;143723;707;47005;-87
2021/06/18 04:07:48;;;;;;;15.93;8.68;;;;;;;23.26;53.20;101349.50;143726;581;45919;-86
2021/06/18 04:10:17;;;;;;;11.38;8.10;;;;;;;23.35;52.52;101351.72;143730;592;47004;-86
2021/06/18 04:12:51;;;;;;;10.15;8.65;;;;;;;23.43;52.98;101359.41;143722;579;49021;-87
2021/06/18 04:15:20;;;;;;;12.87;9.43;;;;;;;23.48;53.03;101356.69;143725;586;47002;-86
2021/06/18 04:17:48;;;;;;;15.48;9.30;;;;;;;23.54;53.49;101361.09;143725;648;46926;-85
2021/06/18 04:20:18;;;;;;;12.98;9.00;;;;;;;23.55;53.48;101356.44;143727;619;47002;-87
2021/06/18 04:22:46;;;;;;;13.77;10.15;;;;;;;23.59;53.22;101355.63;143719;600;48004;-87
2021/06/18 04:25:13;;;;;;;15.10;8.32;;;;;;;23.59;52.02;101365.78;143724;609;47004;-86
2021/06/18 04:27:40;;;;;;;11.05;7.70;;;;;;;23.53;51.70;101362.19;143724;611;46920;-86
2021/06/18 04:30:12;;;;;;;13.55;6.65;;;;;;;23.65;51.34;101367.41;143728;635;47004;-87
2021/06/18 04:32:39;;;;;;;9.55;6.35;;;;;;;23.70;51.04;101366.63;143723;617;47012;-87
2021/06/18 04:35:08;;;;;;;10.82;6.78;;;;;;;23.73;51.25;101372.37;143724;598;47002;-88
2021/06/18 04:37:36;;;;;;;11.35;7.72;;;;;;;23.78;51.00;101374.28;143727;592;46924;-89
2021/06/18 04:40:08;;;;;;;11.48;7.70;;;;;;;23.76;50.87;101381.97;143724;596;47008;-87
2021/06/18 04:42:36;;;;;;;14.25;7.60;;;;;;;23.78;51.18;101379.78;143724;589;48008;-88
2021/06/18 04:45:04;;;;;;;10.00;7.93;;;;;;;23.84;51.54;101375.97;143724;694;47004;-86
2021/06/18 04:47:31;;;;;;;10.95;7.28;;;;;;;23.93;51.29;101379.00;143722;591;47008;-88
2021/06/18 04:49:58;;;;;;;9.10;7.62;;;;;;;24.03;51.51;101384.50;143728;601;47000;-88
2021/06/18 04:52:25;;;;;;;12.52;8.73;;;;;;;24.06;51.15;101389.44;143723;648;47010;-89
2021/06/18 04:54:58;;;;;;;13.90;9.30;;;;;;;24.07;52.18;101384.81;143720;593;50007;-87
2021/06/18 04:57:25;;;;;;;13.05;9.20;;;;;;;24.11;52.50;101380.38;143725;583;46002;-88
2021/06/18 04:59:52;;;;;;;14.02;9.77;;;;;;;24.16;51.80;101393.31;143729;623;47004;-88
2021/06/18 05:02:19;;;;;;;14.10;9.02;;;;;;;24.20;52.23;101378.75;143725;627;47010;-88
2021/06/18 05:04:46;;;;;;;13.00;8.82;;;;;;;24.25;51.64;101379.87;143724;619;47015;-88
2021/06/18 05:07:14;;;;;;;12.65;8.82;;;;;;;24.27;51.95;101388.66;143726;590;46002;-89
2021/06/18 05:09:42;;;;;;;12.85;8.63;;;;;;;24.30;52.06;101397.16;143727;605;47002;-89
2021/06/18 05:12:09;;;;;;;13.30;8.20;;;;;;;24.31;51.68;101395.22;143726;612;47010;-89
2021/06/18 05:14:37;;;;;;;13.02;8.73;;;;;;;24.31;51.72;101401.53;143726;568;47002;-89
2021/06/18 05:17:04;;;;;;;12.07;8.82;;;;;;;24.32;51.47;101396.84;143725;591;46924;-88
2021/06/18 05:19:31;;;;;;;16.62;8.63;;;;;;;24.42;51.78;101405.09;143722;602;49008;-89
2021/06/18 05:21:58;;;;;;;11.23;7.80;;;;;;;24.49;51.68;101404.81;143726;638;47008;-90
2021/06/18 05:24:25;;;;;;;10.30;7.70;;;;;;;24.53;51.82;101401.25;143720;568;48004;-89
2021/06/18 05:26:52;;;;;;;13.75;8.50;;;;;;;24.59;51.17;101409.47;143726;574;45926;-88
2021/06/18 05:29:19;;;;;;;15.98;9.00;;;;;;;24.58;50.83;101402.34;143728;615;47002;-89
2021/06/18 05:31:47;;;;;;;14.02;8.27;;;;;;;24.62;50.68;101398.75;143725;588;47010;-89
2021/06/18 05:34:14;;;;;;;13.73;7.95;;;;;;;24.70;50.77;101397.41;143724;656;48004;-89
2021/06/18 05:36:44;;;;;;;12.75;7.43;;;;;;;24.77;50.99;101400.69;143727;579;46008;-87
2021/06/18 05:39:13;;;;;;;15.50;7.32;;;;;;;24.82;50.13;101402.59;143726;644;48004;-88
2021/06/18 05:41:40;;;;;;;12.05;7.25;;;;;;;24.86;50.39;101392.69;143726;588;47009;-89
2021/06/18 05:44:07;;;;;;;10.32;8.02;;;;;;;24.90;50.03;101399.25;143723;676;49002;-88
2021/06/18 05:46:34;;;;;;;11.70;6.25;;;;;;;24.98;49.74;101392.38;143729;567;45926;-89
2021/06/18 05:49:01;;;;;;;8.98;6.10;;;;;;;25.02;49.88;101387.97;143723;591;49004;-89
2021/06/18 05:51:28;;;;;;;15.20;6.30;;;;;;;25.07;49.76;101393.44;143726;579;47004;-88
2021/06/18 05:53:55;;;;;;;8.85;5.32;;;;;;;25.16;49.98;101393.69;143725;616;48002;-85
2021/06/18 05:56:22;;;;;;;6.78;4.00;;;;;;;25.25;50.38;101392.00;143727;567;45926;-88
2021/06/18 05:58:51;;;;;;;4.22;2.55;;;;;;;25.34;49.48;101403.22;143727;576;48002;-91
2021/06/18 06:01:18;;;;;;;3.03;2.65;;;;;;;25.40;49.07;101404.84;143726;712;47004;-89
2021/06/18 06:03:45;;;;;;;3.35;2.67;;;;;;;25.45;49.88;101395.78;143724;714;48004;-88
2021/06/18 06:06:12;;;;;;;3.42;2.70;;;;;;;25.46;48.61;101397.44;143726;623;47000;-88
2021/06/18 06:08:39;;;;;;;4.22;2.67;;;;;;;25.51;48.85;101394.66;143730;584;46004;-88
2021/06/18 06:11:06;;;;;;;5.90;2.80;;;;;;;25.56;48.46;101397.38;143725;583;47012;-89
2021/06/18 06:13:33;;;;;;;5.75;2.15;;;;;;;25.62;48.76;101403.69;143724;567;49002;-89
2021/06/18 06:16:00;;;;;;;4.12;2.70;;;;;;;25.66;48.50;101402.00;143727;637;46004;-89
2021/06/18 06:18:30;;;;;;;5.40;2.53;;;;;;;25.70;48.54;101399.50;143729;589;47005;-89
2021/06/18 06:20:57;;;;;;;3.97;2.53;;;;;;;25.72;48.07;101402.78;143726;597;45920;-88
2021/06/18 06:23:24;;;;;;;4.20;2.50;;;;;;;25.73;47.99;101401.69;143725;590;47002;-89
2021/06/18 06:25:51;;;;;;;3.87;2.22;;;;;;;25.78;48.07;101390.63;143725;595;46004;-88
2021/06/18 06:28:18;;;;;;;4.03;2.42;;;;;;;25.82;47.86;101399.16;143729;603;47004;-87
2021/06/18 06:30:46;;;;;;;3.95;2.47;;;;;;;25.92;48.24;101404.56;143726;644;47008;-89
2021/06/18 06:33:13;;;;;;;4.22;3.05;;;;;;;25.98;47.73;101397.09;143726;608;47005;-88
2021/06/18 06:35:41;;;;;;;4.90;3.20;;;;;;;25.98;47.07;101392.44;143724;637;47004;-91
2021/06/18 06:38:08;;;;;;;3.12;2.30;;;;;;;25.99;47.53;101394.06;143729;696;47002;-89
2021/06/18 06:40:35;;;;;;;5.85;2.92;;;;;;;26.01;47.39;101389.13;143726;583;47010;-89
2021/06/18 06:43:02;;;;;;;6.55;2.60;;;;;;;26.04;47.33;101390.47;143726;572;47004;-90
2021/06/18 06:45:30;;;;;;;6.62;2.55;;;;;;;26.08;47.29;101394.28;143728;566;46002;-88
2021/06/18 06:47:57;;;;;;;3.00;2.70;;;;;;;26.17;47.98;101400.84;143726;569;48002;-90
2021/06/18 06:50:24;;;;;;;3.62;2.72;;;;;;;26.23;47.14;101393.34;143726;580;47013;-88
2021/06/18 06:52:51;;;;;;;2.92;2.33;;;;;;;26.32;47.28;101386.13;143726;591;47026;-88
2021/06/18 06:55:18;;;;;;;4.37;2.85;;;;;;;26.38;46.86;101392.41;143727;672;46006;-87
2021/06/18 06:57:46;;;;;;;4.22;2.70;;;;;;;26.44;48.60;101376.66;143731;584;47004;-86
2021/06/18 07:00:16;;;;;;;5.65;2.67;;;;;;;26.48;47.15;101377.72;143726;573;47012;-86
2021/06/18 07:02:43;;;;;;;4.07;2.33;;;;;;;26.54;46.33;101378.47;143727;575;47004;-86
2021/06/18 07:05:10;;;;;;;3.72;2.62;;;;;;;26.64;46.76;101375.63;143718;622;47006;-89
2021/06/18 07:07:37;;;;;;;3.35;3.05;;;;;;;26.72;46.89;101374.97;143731;610;46004;-86
2021/06/18 07:10:07;;;;;;;4.45;2.70;;;;;;;26.80;46.27;101367.22;143724;578;47011;-86
2021/06/18 07:12:34;;;;;;;5.32;2.90;;;;;;;26.86;46.40;101368.78;143726;598;47004;-86
2021/06/18 07:15:01;;;;;;;3.58;2.90;;;;;;;26.92;45.88;101364.88;143721;566;48000;-86
2021/06/18 07:17:28;;;;;;;3.53;2.55;;;;;;;26.98;45.04;101362.87;143729;590;47004;-86
2021/06/18 07:19:57;;;;;;;4.93;3.30;;;;;;;27.01;44.26;101360.34;143725;605;47021;-85
2021/06/18 07:22:24;;;;;;;4.95;2.80;;;;;;;27.05;44.57;101363.34;143725;638;48002;-85
2021/06/18 07:24:51;;;;;;;3.33;3.03;;;;;;;27.12;44.68;101365.75;143727;590;46015;-85
2021/06/18 07:27:20;;;;;;;4.25;3.08;;;;;;;27.20;45.74;101362.31;143731;572;45008;-85
2021/06/18 07:29:46;;;;;;;3.47;2.40;;;;;;;27.26;44.67;101361.12;143726;576;47010;-85
2021/06/18 07:32:14;;;;;;;2.72;2.47;;;;;;;27.27;43.36;101356.44;143729;575;46012;-84
2021/06/18 07:34:40;;;;;;;3.00;2.30;;;;;;;27.31;43.20;101352.78;143717;604;49006;-85
2021/06/18 07:37:08;;;;;;;12.85;3.10;;;;;;;27.43;44.04;101357.03;143726;639;48006;-85
2021/06/18 07:39:38;;;;;;;3.62;2.92;;;;;;;27.49;43.17;101345.66;143726;655;47008;-86
2021/06/18 07:42:05;;;;;;;2.87;2.45;;;;;;;27.53;43.62;101356.94;143725;659;47004;-86
2021/06/18 07:44:37;;;;;;;5.65;2.80;;;;;;;27.57;43.95;101348.87;143729;595;45928;-86
2021/06/18 07:47:06;;;;;;;3.97;2.60;;;;;;;27.67;43.95;101343.19;143726;583;50004;-85
2021/06/18 07:49:33;;;;;;;3.33;2.83;;;;;;;27.75;43.53;101345.28;143727;578;47011;-86
2021/06/18 07:52:01;;;;;;;3.62;2.70;;;;;;;27.81;43.25;101344.06;143726;636;47004;-86
2021/06/18 07:54:28;;;;;;;3.10;2.70;;;;;;;27.87;42.64;101341.22;143727;611;45920;-85
2021/06/18 07:56:55;;;;;;;3.97;2.90;;;;;;;27.86;41.95;101342.34;143729;661;47004;-87
2021/06/18 07:59:22;;;;;;;3.22;2.92;;;;;;;27.87;42.78;101338.47;143725;625;47010;-86
2021/06/18 08:01:49;;;;;;;2.80;2.40;;;;;;;27.96;42.53;101342.19;143722;610;47011;-86
2021/06/18 08:04:16;;;;;;;4.82;2.62;;;;;;;28.03;42.30;101331.56;143721;588;48991;-86
2021/06/18 08:06:43;;;;;;;3.37;2.53;;;;;;;28.05;41.65;101337.59;143721;603;49014;-85
2021/06/18 08:09:10;;;;;;;4.72;2.45;;;;;;;28.10;42.07;101336.72;143725;636;47009;-87
2021/06/18 08:11:37;;;;;;;7.05;3.10;;;;;;;28.18;42.12;101333.28;143726;595;47004;-87
2021/06/18 08:14:05;;;;;;;5.22;2.60;;;;;;;28.22;41.66;101331.56;143729;567;45928;-85
2021/06/18 08:16:32;;;;;;;3.95;2.90;;;;;;;28.29;41.81;101326.44;143728;608;47003;-86
2021/06/18 08:18:59;;;;;;;3.50;3.08;;;;;;;28.38;41.33;101326.53;143725;616;47010;-86
2021/06/18 08:21:26;;;;;;;9.65;3.85;;;;;;;28.47;41.73;101329.41;143723;618;47004;-86
2021/06/18 08:23:54;;;;;;;7.68;3.70;;;;;;;28.55;41.75;101317.66;143729;592;45920;-86
2021/06/18 08:26:21;;;;;;;2.95;2.60;;;;;;;28.51;41.34;101316.62;143729;639;47005;-87
2021/06/18 08:28:51;;;;;;;4.53;2.70;;;;;;;28.57;40.66;101320.12;143726;594;47010;-86
2021/06/18 08:31:19;;;;;;;3.92;2.90;;;;;;;28.63;41.31;101313.38;143714;609;48004;-87
2021/06/18 08:33:46;;;;;;;3.37;2.47;;;;;;;28.70;40.36;101315.72;143728;612;45924;-85
2021/06/18 08:36:14;;;;;;;4.65;3.03;;;;;;;28.73;40.09;101309.56;143696;596;50008;-86
2021/06/18 08:38:43;;;;;;;3.58;2.60;;;;;;;28.82;40.43;101301.41;143727;605;47012;-87
2021/06/18 08:41:10;;;;;;;3.42;3.12;;;;;;;28.92;40.39;101297.63;143715;624;48008;-86
2021/06/18 08:43:39;;;;;;;5.62;3.03;;;;;;;29.00;40.68;101302.41;143726;580;46002;-86
2021/06/18 08:46:07;;;;;;;3.87;2.70;;;;;;;28.93;40.18;101296.50;143728;594;48004;-86
2021/06/18 08:48:34;;;;;;;6.55;3.12;;;;;;;28.93;40.15;101293.72;143725;598;47008;-85
2021/06/18 08:51:03;;;;;;;3.90;3.45;;;;;;;29.07;40.16;101291.75;143725;661;47004;-86
2021/06/18 08:53:34;;;;;;;4.87;2.90;;;;;;;29.06;40.22;101298.41;143727;657;47002;-88
2021/06/18 08:56:02;;;;;;;5.95;3.45;;;;;;;29.11;40.37;101286.41;143730;569;47004;-86
2021/06/18 08:58:29;;;;;;;7.57;2.78;;;;;;;29.19;41.21;101285.66;143727;600;47008;-85
2021/06/18 09:00:56;;;;;;;4.15;3.08;;;;;;;29.20;42.16;101290.06;143726;566;47002;-87
2021/06/18 09:03:35;;;;;;;5.43;3.55;;;;;;;29.23;41.53;101286.66;143729;613;45926;-84
2021/06/18 09:06:03;;;;;;;4.18;3.10;;;;;;;29.23;40.09;101288.63;143730;589;47004;-87
2021/06/18 09:08:31;;;;;;;8.68;3.95;;;;;;;29.30;41.02;101284.28;143713;558;50011;-87
2021/06/18 09:10:58;;;;;;;5.22;3.37;;;;;;;29.43;41.12;101284.56;143723;596;47004;-87
2021/06/18 09:13:34;;;;;;;4.32;3.83;;;;;;;29.47;41.04;101277.28;143729;566;45928;-87
2021/06/18 09:16:01;;;;;;;5.90;3.30;;;;;;;29.52;40.98;101279.94;143730;612;47003;-86
2021/06/18 09:18:36;;;;;;;8.38;3.90;;;;;;;29.55;41.43;101282.09;143727;586;47010;-85
2021/06/18 09:21:24;;;;;;;6.85;3.67;;;;;;;29.55;38.94;101276.56;143724;572;47004;-86
2021/06/18 09:23:53;;;;;;;5.93;3.65;;;;;;;29.60;40.45;101275.59;143725;590;46002;-88
2021/06/18 09:26:35;;;;;;;5.37;3.62;;;;;;;29.73;40.00;101271.13;143728;577;48004;-85
2021/06/18 09:29:21;;;;;;;8.32;4.07;;;;;;;29.84;40.33;101272.50;143726;566;48017;-86
2021/06/18 09:31:58;;;;;;;6.30;3.75;;;;;;;29.98;40.82;101266.06;143727;573;47004;-86
2021/06/18 09:34:46;;;;;;;7.22;4.20;;;;;;;30.10;41.38;101272.66;143722;583;49008;-86
2021/06/18 09:37:37;;;;;;;11.30;3.83;;;;;;;30.09;40.63;101262.72;143730;589;47002;-87
2021/06/18 09:40:17;;;;;;;5.70;3.87;;;;;;;30.06;40.72;101255.03;143725;588;47012;-87
2021/06/18 09:42:56;;;;;;;7.05;4.25;;;;;;;30.13;42.28;101257.34;143726;582;47007;-86
2021/06/18 09:45:35;;;;;;;9.50;4.60;;;;;;;30.07;40.43;101253.91;143729;567;46002;-87
2021/06/18 09:48:34;;;;;;;10.10;4.53;;;;;;;30.13;41.74;101246.25;143727;577;48002;-87
2021/06/18 09:51:02;;;;;;;6.07;4.50;;;;;;;30.17;42.49;101247.25;143728;589;46012;-87
2021/06/18 09:53:31;;;;;;;5.18;4.00;;;;;;;30.14;40.74;101245.12;143725;575;47004;-87
2021/06/18 09:56:10;;;;;;;6.10;3.87;;;;;;;30.16;40.65;101242.06;143727;595;45920;-86
2021/06/18 09:58:42;;;;;;;5.60;3.87;;;;;;;30.22;40.71;101238.00;143727;702;47002;-86
2021/06/18 10:01:24;;;;;;;5.50;4.25;;;;;;;30.29;41.17;101227.28;143723;722;47010;-85
2021/06/18 10:04:14;;;;;;;6.10;4.10;;;;;;;30.29;40.85;101235.59;143713;569;48002;-87
2021/06/18 10:06:43;;;;;;;4.60;3.60;;;;;;;30.28;39.39;101222.88;143726;616;46004;-85
2021/06/18 10:09:14;;;;;;;5.90;3.97;;;;;;;30.18;40.18;101225.94;143713;589;51014;-87
2021/06/18 10:11:43;;;;;;;8.02;4.20;;;;;;;30.16;40.13;101220.69;143725;576;47008;-85
2021/06/18 10:14:11;;;;;;;7.12;3.87;;;;;;;30.25;39.33;101229.03;143724;583;47002;-87
2021/06/18 10:16:39;;;;;;;6.25;3.40;;;;;;;30.15;38.43;101221.03;143726;594;45926;-86
2021/06/18 10:19:07;;;;;;;4.68;3.37;;;;;;;30.09;38.14;101218.41;143727;737;47004;-85
2021/06/18 10:21:48;;;;;;;6.05;2.87;;;;;;;30.16;36.64;101215.16;143723;713;47008;-86
2021/06/18 10:24:17;;;;;;;5.82;2.62;;;;;;;30.18;35.97;101210.13;143723;639;47004;-86
2021/06/18 10:26:50;;;;;;;5.53;2.70;;;;;;;30.34;35.86;101204.13;143724;567;48002;-86
2021/06/18 10:29:38;;;;;;;4.68;2.75;;;;;;;30.47;35.52;101200.41;143727;629;47006;-85
2021/06/18 10:32:30;;;;;;;4.07;2.70;;;;;;;30.60;35.68;101200.66;143723;637;47008;-85
2021/06/18 10:34:58;;;;;;;5.22;2.87;;;;;;;30.68;35.11;101192.34;143724;650;47002;-86
2021/06/18 10:37:27;;;;;;;4.05;2.33;;;;;;;30.75;34.72;101188.25;143719;613;48002;-86
2021/06/18 10:40:09;;;;;;;4.05;2.30;;;;;;;30.72;33.38;101189.72;143728;688;47002;-85
2021/06/18 10:42:36;;;;;;;2.60;2.40;;;;;;;30.81;32.86;101184.19;143722;566;48010;-86
2021/06/18 10:45:06;;;;;;;4.32;2.40;;;;;;;30.77;33.79;101177.66;143724;721;47004;-87
2021/06/18 10:47:44;;;;;;;4.18;2.30;;;;;;;30.88;32.88;101180.91;143727;605;45928;-87
2021/06/18 10:50:12;;;;;;;2.55;2.28;;;;;;;30.98;34.20;101163.94;143725;577;49002;-87
2021/06/18 10:52:43;;;;;;;3.47;2.05;;;;;;;30.98;32.42;101163.94;143726;569;47002;-86
2021/06/18 10:55:11;;;;;;;5.10;2.40;;;;;;;30.99;33.30;101171.94;143724;572;48004;-87
2021/06/18 10:57:53;;;;;;;2.92;2.22;;;;;;;30.91;33.26;101177.50;143725;603;45928;-86
2021/06/18 11:00:27;;;;;;;3.65;2.35;;;;;;;30.99;33.76;101162.78;143727;600;47003;-87
2021/06/18 11:02:54;;;;;;;3.03;2.20;;;;;;;31.01;33.26;101163.28;143722;587;48013;-86
2021/06/18 11:05:43;;;;;;;3.70;2.42;;;;;;;31.03;33.22;101166.53;143724;604;48004;-86
2021/06/18 11:08:24;;;;;;;5.05;2.62;;;;;;;30.98;33.26;101155.59;143727;569;46002;-86
2021/06/18 11:10:57;;;;;;;2.95;2.00;;;;;;;31.00;33.17;101154.16;143719;604;47997;-87
2021/06/18 11:13:24;;;;;;;4.53;2.10;;;;;;;31.02;32.25;101155.78;143724;680;47010;-86
2021/06/18 11:15:54;;;;;;;3.65;2.17;;;;;;;30.97;32.24;101151.22;143724;609;47002;-87
2021/06/18 11:18:32;;;;;;;3.45;2.00;;;;;;;30.81;32.95;101159.22;143727;601;45924;-86
2021/06/18 11:21:00;;;;;;;3.33;2.33;;;;;;;30.78;32.70;101155.16;143724;600;48008;-87
2021/06/18 11:23:32;;;;;;;5.20;2.42;;;;;;;30.75;32.52;101153.03;143724;619;47012;-86
2021/06/18 11:26:07;;;;;;;6.37;2.12;;;;;;;30.77;33.02;101147.16;143725;567;47002;-86
2021/06/18 11:28:39;;;;;;;3.40;2.20;;;;;;;30.77;33.21;101150.75;143728;616;45926;-85
2021/06/18 11:31:36;;;;;;;3.62;1.90;;;;;;;30.87;32.24;101135.75;143727;586;47002;-86
2021/06/18 11:34:04;;;;;;;2.97;2.17;;;;;;;30.92;31.75;101127.22;143723;601;47010;-88
2021/06/18 11:36:49;;;;;;;3.25;1.70;;;;;;;30.94;31.40;101130.50;143722;577;48006;-87
2021/06/18 11:39:18;;;;;;;4.97;1.90;;;;;;;30.93;32.05;101136.38;143727;604;45929;-85
2021/06/18 11:41:49;;;;;;;2.72;2.10;;;;;;;30.92;35.02;101129.19;143725;641;48002;-87